sensor_id;sensor_type;location;lat;lon;timestamp;pressure;altitude;pressure_sealevel;temperature
32039;BMP280;18549;42.286;22.688;2023-06-19T00:02:01;95723.53;;;22.58
32039;BMP280;18549;42.286;22.688;2023-06-19T00:04:28;95716.09;;;22.56
32039;BMP280;18549;42.286;22.688;2023-06-19T00:07:00;95720.22;;;22.57
32039;BMP280;18549;42.286;22.688;2023-06-19T00:09:27;95719.91;;;22.52
32039;BMP280;18549;42.286;22.688;2023-06-19T00:11:57;95724.06;;;22.46
32039;BMP280;18549;42.286;22.688;2023-06-19T00:14:25;95722.34;;;22.46
32039;BMP280;18549;42.286;22.688;2023-06-19T00:16:53;95719.69;;;22.40
32039;BMP280;18549;42.286;22.688;2023-06-19T00:19:26;95725.34;;;22.42
32039;BMP280;18549;42.286;22.688;2023-06-19T00:21:54;95718.56;;;22.42
32039;BMP280;18549;42.286;22.688;2023-06-19T00:24:24;95722.22;;;22.40
32039;BMP280;18549;42.286;22.688;2023-06-19T00:26:51;95731.69;;;22.38
32039;BMP280;18549;42.286;22.688;2023-06-19T00:29:20;95724.09;;;22.38
32039;BMP280;18549;42.286;22.688;2023-06-19T00:31:49;95722.53;;;22.37
32039;BMP280;18549;42.286;22.688;2023-06-19T00:34:16;95721.59;;;22.38
32039;BMP280;18549;42.286;22.688;2023-06-19T00:36:43;95721.59;;;22.38
32039;BMP280;18549;42.286;22.688;2023-06-19T00:39:10;95720.62;;;22.39
32039;BMP280;18549;42.286;22.688;2023-06-19T00:41:40;95714.00;;;22.38
32039;BMP280;18549;42.286;22.688;2023-06-19T00:44:09;95714.97;;;22.37
32039;BMP280;18549;42.286;22.688;2023-06-19T00:46:42;95715.75;;;22.37
32039;BMP280;18549;42.286;22.688;2023-06-19T00:49:09;95720.00;;;22.37
32039;BMP280;18549;42.286;22.688;2023-06-19T00:51:37;95714.97;;;22.37
32039;BMP280;18549;42.286;22.688;2023-06-19T00:54:05;95719.22;;;22.36
32039;BMP280;18549;42.286;22.688;2023-06-19T00:56:33;95713.38;;;22.36
32039;BMP280;18549;42.286;22.688;2023-06-19T00:59:13;95725.37;;;22.34
32039;BMP280;18549;42.286;22.688;2023-06-19T01:01:41;95717.19;;;22.32
32039;BMP280;18549;42.286;22.688;2023-06-19T01:04:09;95713.09;;;22.31
32039;BMP280;18549;42.286;22.688;2023-06-19T01:06:42;95708.81;;;22.31
32039;BMP280;18549;42.286;22.688;2023-06-19T01:09:11;95702.84;;;22.32
32039;BMP280;18549;42.286;22.688;2023-06-19T01:11:44;95702.03;;;22.32
32039;BMP280;18549;42.286;22.688;2023-06-19T01:14:18;95696.03;;;22.33
32039;BMP280;18549;42.286;22.688;2023-06-19T01:16:49;95700.31;;;22.32
32039;BMP280;18549;42.286;22.688;2023-06-19T01:19:19;95697.78;;;22.32
32039;BMP280;18549;42.286;22.688;2023-06-19T01:21:48;95702.03;;;22.32
32039;BMP280;18549;42.286;22.688;2023-06-19T01:24:21;95699.69;;;22.30
32039;BMP280;18549;42.286;22.688;2023-06-19T01:26:48;95699.06;;;22.28
32039;BMP280;18549;42.286;22.688;2023-06-19T01:29:17;95703.13;;;22.29
32039;BMP280;18549;42.286;22.688;2023-06-19T01:31:50;95701.72;;;22.27
32039;BMP280;18549;42.286;22.688;2023-06-19T01:34:22;95701.09;;;22.25
32039;BMP280;18549;42.286;22.688;2023-06-19T01:36:52;95702.69;;;22.26
32039;BMP280;18549;42.286;22.688;2023-06-19T01:39:24;95701.09;;;22.25
32039;BMP280;18549;42.286;22.688;2023-06-19T01:41:52;95699.88;;;22.21
32039;BMP280;18549;42.286;22.688;2023-06-19T01:44:21;95695.63;;;22.21
32039;BMP280;18549;42.286;22.688;2023-06-19T01:46:49;95699.69;;;22.22
32039;BMP280;18549;42.286;22.688;2023-06-19T01:49:17;95702.06;;;22.24
32039;BMP280;18549;42.286;22.688;2023-06-19T01:51:44;95692.91;;;22.23
32039;BMP280;18549;42.286;22.688;2023-06-19T01:54:11;95699.88;;;22.21
32039;BMP280;18549;42.286;22.688;2023-06-19T01:56:40;95704.94;;;22.21
32039;BMP280;18549;42.286;22.688;2023-06-19T01:59:07;95690.72;;;22.20
32039;BMP280;18549;42.286;22.688;2023-06-19T02:01:36;95708.41;;;22.20
32039;BMP280;18549;42.286;22.688;2023-06-19T02:04:04;95699.25;;;22.19
32039;BMP280;18549;42.286;22.688;2023-06-19T02:06:32;95698.28;;;22.20
32039;BMP280;18549;42.286;22.688;2023-06-19T02:09:00;95697.84;;;22.17
32039;BMP280;18549;42.286;22.688;2023-06-19T02:11:27;95695.31;;;22.17
32039;BMP280;18549;42.286;22.688;2023-06-19T02:14:00;95699.56;;;22.16
32039;BMP280;18549;42.286;22.688;2023-06-19T02:16:27;95697.22;;;22.15
32039;BMP280;18549;42.286;22.688;2023-06-19T02:18:55;95695.81;;;22.12
32039;BMP280;18549;42.286;22.688;2023-06-19T02:21:22;95701.66;;;22.13
32039;BMP280;18549;42.286;22.688;2023-06-19T02:23:49;95695.66;;;22.06
32039;BMP280;18549;42.286;22.688;2023-06-19T02:26:16;95703.84;;;22.08
32039;BMP280;18549;42.286;22.688;2023-06-19T02:28:46;95716.63;;;22.06
32039;BMP280;18549;42.286;22.688;2023-06-19T02:31:18;95722.94;;;22.02
32039;BMP280;18549;42.286;22.688;2023-06-19T02:33:46;95714.12;;;21.98
32039;BMP280;18549;42.286;22.688;2023-06-19T02:36:17;95716.50;;;21.92
32039;BMP280;18549;42.286;22.688;2023-06-19T02:38:46;95724.87;;;21.92
32039;BMP280;18549;42.286;22.688;2023-06-19T02:41:17;95728.34;;;21.91
32039;BMP280;18549;42.286;22.688;2023-06-19T02:43:46;95718.88;;;21.85
32039;BMP280;18549;42.286;22.688;2023-06-19T02:46:17;95728.53;;;21.82
32039;BMP280;18549;42.286;22.688;2023-06-19T02:48:45;95736.25;;;21.81
32039;BMP280;18549;42.286;22.688;2023-06-19T02:51:12;95732.16;;;21.80
32039;BMP280;18549;42.286;22.688;2023-06-19T02:53:40;95728.38;;;21.76
32039;BMP280;18549;42.286;22.688;2023-06-19T02:56:09;95728.53;;;21.74
32039;BMP280;18549;42.286;22.688;2023-06-19T02:58:36;95727.75;;;21.74
32039;BMP280;18549;42.286;22.688;2023-06-19T03:01:05;95722.09;;;21.72
32039;BMP280;18549;42.286;22.688;2023-06-19T03:03:35;95724.94;;;21.69
32039;BMP280;18549;42.286;22.688;2023-06-19T03:06:08;95719.59;;;21.64
32039;BMP280;18549;42.286;22.688;2023-06-19T03:08:39;95727.63;;;21.59
32039;BMP280;18549;42.286;22.688;2023-06-19T03:11:08;95715.78;;;21.52
32039;BMP280;18549;42.286;22.688;2023-06-19T03:13:44;95721.16;;;21.49
32039;BMP280;18549;42.286;22.688;2023-06-19T03:16:11;95727.00;;;21.50
32039;BMP280;18549;42.286;22.688;2023-06-19T03:18:43;95716.13;;;21.49
32039;BMP280;18549;42.286;22.688;2023-06-19T03:21:11;95714.38;;;21.50
32039;BMP280;18549;42.286;22.688;2023-06-19T03:23:38;95715.34;;;21.49
32039;BMP280;18549;42.286;22.688;2023-06-19T03:26:07;95718.00;;;21.47
32039;BMP280;18549;42.286;22.688;2023-06-19T03:28:34;95720.72;;;21.46
32039;BMP280;18549;42.286;22.688;2023-06-19T03:31:03;95721.81;;;21.43
32039;BMP280;18549;42.286;22.688;2023-06-19T03:33:30;95717.72;;;21.42
32039;BMP280;18549;42.286;22.688;2023-06-19T03:36:00;95719.25;;;21.35
32039;BMP280;18549;42.286;22.688;2023-06-19T03:38:27;95720.38;;;21.33
32039;BMP280;18549;42.286;22.688;2023-06-19T03:40:55;95727.28;;;21.31
32039;BMP280;18549;42.286;22.688;2023-06-19T03:43:22;95727.44;;;21.29
32039;BMP280;18549;42.286;22.688;2023-06-19T03:45:50;95725.44;;;21.25
32039;BMP280;18549;42.286;22.688;2023-06-19T03:48:17;95731.22;;;21.17
32039;BMP280;18549;42.286;22.688;2023-06-19T03:50:45;95736.91;;;21.12
32039;BMP280;18549;42.286;22.688;2023-06-19T03:53:13;95727.63;;;21.12
32039;BMP280;18549;42.286;22.688;2023-06-19T03:55:40;95737.38;;;21.07
32039;BMP280;18549;42.286;22.688;2023-06-19T03:58:11;95741.00;;;21.05
32039;BMP280;18549;42.286;22.688;2023-06-19T04:00:38;95741.28;;;21.02
32039;BMP280;18549;42.286;22.688;2023-06-19T04:03:07;95741.94;;;20.96
32039;BMP280;18549;42.286;22.688;2023-06-19T04:05:34;95753.25;;;20.92
32039;BMP280;18549;42.286;22.688;2023-06-19T04:08:01;95742.38;;;20.76
32039;BMP280;18549;42.286;22.688;2023-06-19T04:10:34;95740.63;;;20.76
32039;BMP280;18549;42.286;22.688;2023-06-19T04:13:03;95746.63;;;20.75
32039;BMP280;18549;42.286;22.688;2023-06-19T04:15:32;95737.16;;;20.69
32039;BMP280;18549;42.286;22.688;2023-06-19T04:18:01;95743.78;;;20.70
32039;BMP280;18549;42.286;22.688;2023-06-19T04:20:28;95736.22;;;20.70
32039;BMP280;18549;42.286;22.688;2023-06-19T04:22:59;95738.13;;;20.68
32039;BMP280;18549;42.286;22.688;2023-06-19T04:25:26;95746.00;;;20.73
32039;BMP280;18549;42.286;22.688;2023-06-19T04:27:56;95744.12;;;20.75
32039;BMP280;18549;42.286;22.688;2023-06-19T04:30:23;95745.34;;;20.79
32039;BMP280;18549;42.286;22.688;2023-06-19T04:32:50;95744.75;;;20.85
32039;BMP280;18549;42.286;22.688;2023-06-19T04:35:20;95739.56;;;20.86
32039;BMP280;18549;42.286;22.688;2023-06-19T04:37:49;95739.25;;;20.89
32039;BMP280;18549;42.286;22.688;2023-06-19T04:40:18;95748.87;;;20.94
32039;BMP280;18549;42.286;22.688;2023-06-19T04:42:50;95752.66;;;20.98
32039;BMP280;18549;42.286;22.688;2023-06-19T04:45:24;95750.91;;;20.98
32039;BMP280;18549;42.286;22.688;2023-06-19T04:47:56;95747.91;;;20.95
32039;BMP280;18549;42.286;22.688;2023-06-19T04:50:28;95747.63;;;20.98
32039;BMP280;18549;42.286;22.688;2023-06-19T04:52:56;95747.75;;;20.96
32039;BMP280;18549;42.286;22.688;2023-06-19T04:55:24;95741.94;;;20.96
32039;BMP280;18549;42.286;22.688;2023-06-19T04:57:54;95752.66;;;20.98
32039;BMP280;18549;42.286;22.688;2023-06-19T05:00:23;95748.25;;;21.00
32039;BMP280;18549;42.286;22.688;2023-06-19T05:03:00;95746.81;;;21.05
32039;BMP280;18549;42.286;22.688;2023-06-19T05:05:44;95750.63;;;21.09
32039;BMP280;18549;42.286;22.688;2023-06-19T05:08:12;95758.47;;;21.06
32039;BMP280;18549;42.286;22.688;2023-06-19T05:10:41;95753.16;;;21.09
32039;BMP280;18549;42.286;22.688;2023-06-19T05:13:15;95755.81;;;21.08
32039;BMP280;18549;42.286;22.688;2023-06-19T05:15:47;95748.87;;;21.10
32039;BMP280;18549;42.286;22.688;2023-06-19T05:18:17;95754.84;;;21.09
32039;BMP280;18549;42.286;22.688;2023-06-19T05:20:45;95756.59;;;21.08
32039;BMP280;18549;42.286;22.688;2023-06-19T05:23:12;95753.16;;;21.09
32039;BMP280;18549;42.286;22.688;2023-06-19T05:25:40;95755.81;;;21.08
32039;BMP280;18549;42.286;22.688;2023-06-19T05:28:12;95760.25;;;21.14
32039;BMP280;18549;42.286;22.688;2023-06-19T05:34:08;95759.91;;;21.24
32039;BMP280;18549;42.286;22.688;2023-06-19T05:36:41;95758.97;;;21.25
32039;BMP280;18549;42.286;22.688;2023-06-19T05:39:10;95757.88;;;21.28
32039;BMP280;18549;42.286;22.688;2023-06-19T05:41:41;95766.72;;;21.32
32039;BMP280;18549;42.286;22.688;2023-06-19T05:44:11;95764.97;;;21.32
32039;BMP280;18549;42.286;22.688;2023-06-19T05:46:43;95767.16;;;21.35
32039;BMP280;18549;42.286;22.688;2023-06-19T05:49:20;95757.41;;;21.40
32039;BMP280;18549;42.286;22.688;2023-06-19T05:51:54;95757.72;;;21.45
32039;BMP280;18549;42.286;22.688;2023-06-19T05:54:26;95751.44;;;21.49
32039;BMP280;18549;42.286;22.688;2023-06-19T05:56:52;95752.06;;;21.51
32039;BMP280;18549;42.286;22.688;2023-06-19T05:59:21;95747.34;;;21.48
32039;BMP280;18549;42.286;22.688;2023-06-19T06:01:51;95754.59;;;21.51
32039;BMP280;18549;42.286;22.688;2023-06-19T06:04:24;95765.94;;;21.55
32039;BMP280;18549;42.286;22.688;2023-06-19T06:06:52;95755.69;;;21.56
32039;BMP280;18549;42.286;22.688;2023-06-19T06:09:21;95763.25;;;21.56
32039;BMP280;18549;42.286;22.688;2023-06-19T06:11:48;95757.09;;;21.59
32039;BMP280;18549;42.286;22.688;2023-06-19T06:14:15;95763.06;;;21.66
32039;BMP280;18549;42.286;22.688;2023-06-19T06:16:42;95755.22;;;21.69
32039;BMP280;18549;42.286;22.688;2023-06-19T06:19:09;95763.56;;;21.69
32039;BMP280;18549;42.286;22.688;2023-06-19T06:21:59;95760.88;;;21.71
32039;BMP280;18549;42.286;22.688;2023-06-19T06:24:30;95765.59;;;21.74
32039;BMP280;18549;42.286;22.688;2023-06-19T06:26:58;95764.16;;;21.79
32039;BMP280;18549;42.286;22.688;2023-06-19T06:29:27;95760.53;;;21.82
32039;BMP280;18549;42.286;22.688;2023-06-19T06:32:10;95756.09;;;21.83
32039;BMP280;18549;42.286;22.688;2023-06-19T06:34:39;95761.31;;;21.90
32039;BMP280;18549;42.286;22.688;2023-06-19T06:37:14;95764.91;;;21.95
32039;BMP280;18549;42.286;22.688;2023-06-19T06:39:48;95761.47;;;21.96
32039;BMP280;18549;42.286;22.688;2023-06-19T06:42:17;95763.50;;;22.01
32039;BMP280;18549;42.286;22.688;2023-06-19T06:44:50;95759.72;;;22.05
32039;BMP280;18549;42.286;22.688;2023-06-19T06:47:18;95753.22;;;22.10
32039;BMP280;18549;42.286;22.688;2023-06-19T06:49:50;95760.94;;;22.09
32039;BMP280;18549;42.286;22.688;2023-06-19T06:52:33;95756.84;;;22.16
32039;BMP280;18549;42.286;22.688;2023-06-19T06:55:05;95752.72;;;22.22
32039;BMP280;18549;42.286;22.688;2023-06-19T06:57:36;95755.53;;;22.27
32039;BMP280;18549;42.286;22.688;2023-06-19T07:00:13;95772.25;;;22.36
32039;BMP280;18549;42.286;22.688;2023-06-19T07:02:50;95765.28;;;22.38
32039;BMP280;18549;42.286;22.688;2023-06-19T07:05:18;95765.28;;;22.46
32039;BMP280;18549;42.286;22.688;2023-06-19T07:07:53;95762.06;;;22.52
32039;BMP280;18549;42.286;22.688;2023-06-19T07:10:29;95762.22;;;22.58
32039;BMP280;18549;42.286;22.688;2023-06-19T07:12:59;95761.56;;;22.64
32039;BMP280;18549;42.286;22.688;2023-06-19T07:15:31;95762.63;;;22.70
32039;BMP280;18549;42.286;22.688;2023-06-19T07:17:59;95760.56;;;22.73
32039;BMP280;18549;42.286;22.688;2023-06-19T07:20:30;95756.44;;;22.80
32039;BMP280;18549;42.286;22.688;2023-06-19T07:23:03;95750.56;;;22.87
32039;BMP280;18549;42.286;22.688;2023-06-19T07:25:33;95742.00;;;22.88
32039;BMP280;18549;42.286;22.688;2023-06-19T07:28:04;95753.81;;;22.96
32039;BMP280;18549;42.286;22.688;2023-06-19T07:30:41;95756.66;;;23.01
32039;BMP280;18549;42.286;22.688;2023-06-19T07:33:13;95750.28;;;23.05
32039;BMP280;18549;42.286;22.688;2023-06-19T07:35:41;95750.91;;;23.07
32039;BMP280;18549;42.286;22.688;2023-06-19T07:38:13;95755.16;;;23.06
32039;BMP280;18549;42.286;22.688;2023-06-19T07:40:50;95757.97;;;23.11
32039;BMP280;18549;42.286;22.688;2023-06-19T07:43:18;95754.66;;;23.11
32039;BMP280;18549;42.286;22.688;2023-06-19T07:45:53;95756.19;;;23.19
32039;BMP280;18549;42.286;22.688;2023-06-19T07:48:21;95753.28;;;23.30
32039;BMP280;18549;42.286;22.688;2023-06-19T07:50:53;95752.56;;;23.36
32039;BMP280;18549;42.286;22.688;2023-06-19T07:53:30;95757.63;;;23.36
32039;BMP280;18549;42.286;22.688;2023-06-19T07:56:02;95751.91;;;23.42
32039;BMP280;18549;42.286;22.688;2023-06-19T07:58:35;95748.97;;;23.53
32039;BMP280;18549;42.286;22.688;2023-06-19T08:01:09;95742.22;;;23.68
32039;BMP280;18549;42.286;22.688;2023-06-19T08:03:38;95749.72;;;23.76
32039;BMP280;18549;42.286;22.688;2023-06-19T08:06:07;95757.41;;;23.82
32039;BMP280;18549;42.286;22.688;2023-06-19T08:08:39;95760.12;;;23.95
32039;BMP280;18549;42.286;22.688;2023-06-19T08:11:11;95749.31;;;24.01
32039;BMP280;18549;42.286;22.688;2023-06-19T08:13:49;95753.31;;;24.10
32039;BMP280;18549;42.286;22.688;2023-06-19T08:16:19;95758.13;;;24.19
32039;BMP280;18549;42.286;22.688;2023-06-19T08:18:50;95753.19;;;24.25
32039;BMP280;18549;42.286;22.688;2023-06-19T08:21:22;95743.38;;;24.37
32039;BMP280;18549;42.286;22.688;2023-06-19T08:23:59;95747.16;;;24.41
32039;BMP280;18549;42.286;22.688;2023-06-19T08:26:34;95752.09;;;24.49
32039;BMP280;18549;42.286;22.688;2023-06-19T08:29:15;95752.38;;;24.53
32039;BMP280;18549;42.286;22.688;2023-06-19T08:31:52;95752.88;;;24.63
32039;BMP280;18549;42.286;22.688;2023-06-19T08:34:33;95754.34;;;24.72
32039;BMP280;18549;42.286;22.688;2023-06-19T08:37:00;95750.31;;;24.78
32039;BMP280;18549;42.286;22.688;2023-06-19T08:39:31;95739.00;;;24.80
32039;BMP280;18549;42.286;22.688;2023-06-19T08:42:01;95748.56;;;24.92
32039;BMP280;18549;42.286;22.688;2023-06-19T08:44:37;95745.81;;;24.94
32039;BMP280;18549;42.286;22.688;2023-06-19T08:47:05;95745.53;;;25.03
32039;BMP280;18549;42.286;22.688;2023-06-19T08:49:45;95747.19;;;25.11
32039;BMP280;18549;42.286;22.688;2023-06-19T08:52:13;95743.91;;;25.17
32039;BMP280;18549;42.286;22.688;2023-06-19T08:54:49;95734.44;;;25.25
32039;BMP280;18549;42.286;22.688;2023-06-19T08:57:33;95752.59;;;25.28
32039;BMP280;18549;42.286;22.688;2023-06-19T09:00:02;95740.81;;;25.42
32039;BMP280;18549;42.286;22.688;2023-06-19T09:02:44;95743.50;;;25.40
32039;BMP280;18549;42.286;22.688;2023-06-19T09:05:14;95737.50;;;25.41
32039;BMP280;18549;42.286;22.688;2023-06-19T09:07:42;95746.91;;;25.47
32039;BMP280;18549;42.286;22.688;2023-06-19T09:10:18;95734.56;;;25.44
32039;BMP280;18549;42.286;22.688;2023-06-19T09:12:56;95738.22;;;25.56
32039;BMP280;18549;42.286;22.688;2023-06-19T09:15:27;95743.16;;;25.64
32039;BMP280;18549;42.286;22.688;2023-06-19T09:18:04;95736.75;;;25.68
32039;BMP280;18549;42.286;22.688;2023-06-19T09:20:33;95739.16;;;25.76
32039;BMP280;18549;42.286;22.688;2023-06-19T09:23:01;95734.91;;;25.83
32039;BMP280;18549;42.286;22.688;2023-06-19T09:25:29;95729.66;;;25.84
32039;BMP280;18549;42.286;22.688;2023-06-19T09:27:59;95720.66;;;25.88
32039;BMP280;18549;42.286;22.688;2023-06-19T09:30:36;95725.81;;;26.01
32039;BMP280;18549;42.286;22.688;2023-06-19T09:33:06;95727.63;;;26.07
32039;BMP280;18549;42.286;22.688;2023-06-19T09:35:34;95726.09;;;26.12
32039;BMP280;18549;42.286;22.688;2023-06-19T09:38:02;95723.13;;;26.09
32039;BMP280;18549;42.286;22.688;2023-06-19T09:40:31;95724.53;;;26.11
32039;BMP280;18549;42.286;22.688;2023-06-19T09:43:03;95721.06;;;26.19
32039;BMP280;18549;42.286;22.688;2023-06-19T09:45:34;95723.84;;;26.23
32039;BMP280;18549;42.286;22.688;2023-06-19T09:48:03;95715.84;;;26.33
32039;BMP280;18549;42.286;22.688;2023-06-19T09:50:32;95720.38;;;26.37
32039;BMP280;18549;42.286;22.688;2023-06-19T09:53:00;95719.97;;;26.34
32039;BMP280;18549;42.286;22.688;2023-06-19T09:55:33;95721.97;;;26.45
32039;BMP280;18549;42.286;22.688;2023-06-19T09:58:09;95710.63;;;26.47
32039;BMP280;18549;42.286;22.688;2023-06-19T10:00:42;95713.38;;;26.46
32039;BMP280;18549;42.286;22.688;2023-06-19T10:03:15;95697.16;;;26.53
32039;BMP280;18549;42.286;22.688;2023-06-19T10:05:45;95700.91;;;26.57
32039;BMP280;18549;42.286;22.688;2023-06-19T10:10:48;95700.91;;;26.63
32039;BMP280;18549;42.286;22.688;2023-06-19T10:13:18;95707.56;;;26.64
32039;BMP280;18549;42.286;22.688;2023-06-19T10:15:45;95709.47;;;26.50
32039;BMP280;18549;42.286;22.688;2023-06-19T10:18:19;95705.19;;;26.50
32039;BMP280;18549;42.286;22.688;2023-06-19T10:20:46;95713.00;;;26.49
32039;BMP280;18549;42.286;22.688;2023-06-19T10:23:15;95701.87;;;26.62
32039;BMP280;18549;42.286;22.688;2023-06-19T10:25:44;95700.56;;;26.73
32039;BMP280;18549;42.286;22.688;2023-06-19T10:28:22;95702.16;;;26.80
32039;BMP280;18549;42.286;22.688;2023-06-19T10:30:54;95697.88;;;26.87
32039;BMP280;18549;42.286;22.688;2023-06-19T10:33:30;95692.78;;;26.87
32039;BMP280;18549;42.286;22.688;2023-06-19T10:36:01;95690.66;;;26.97
32039;BMP280;18549;42.286;22.688;2023-06-19T10:38:29;95688.91;;;27.04
32039;BMP280;18549;42.286;22.688;2023-06-19T10:40:58;95684.00;;;27.09
32039;BMP280;18549;42.286;22.688;2023-06-19T10:43:31;95685.00;;;27.08
32039;BMP280;18549;42.286;22.688;2023-06-19T10:45:58;95687.34;;;27.16
32039;BMP280;18549;42.286;22.688;2023-06-19T10:48:30;95678.53;;;27.12
32039;BMP280;18549;42.286;22.688;2023-06-19T10:50:57;95677.94;;;27.10
32039;BMP280;18549;42.286;22.688;2023-06-19T10:53:29;95680.28;;;27.11
32039;BMP280;18549;42.286;22.688;2023-06-19T10:55:56;95686.94;;;27.06
32039;BMP280;18549;42.286;22.688;2023-06-19T10:58:30;95687.13;;;27.11
32039;BMP280;18549;42.286;22.688;2023-06-19T11:01:25;95682.25;;;27.16
32039;BMP280;18549;42.286;22.688;2023-06-19T11:03:58;95677.16;;;27.16
32039;BMP280;18549;42.286;22.688;2023-06-19T11:06:36;95681.25;;;27.29
32039;BMP280;18549;42.286;22.688;2023-06-19T11:09:10;95673.84;;;27.28
32039;BMP280;18549;42.286;22.688;2023-06-19T11:11:41;95683.84;;;27.42
32039;BMP280;18549;42.286;22.688;2023-06-19T11:14:19;95683.84;;;27.55
32039;BMP280;18549;42.286;22.688;2023-06-19T11:17:07;95676.59;;;27.58
32039;BMP280;18549;42.286;22.688;2023-06-19T11:19:35;95673.63;;;27.68
32039;BMP280;18549;42.286;22.688;2023-06-19T11:22:08;95667.56;;;27.69
32039;BMP280;18549;42.286;22.688;2023-06-19T11:24:43;95666.75;;;27.75
32039;BMP280;18549;42.286;22.688;2023-06-19T11:27:45;95664.63;;;27.65
32039;BMP280;18549;42.286;22.688;2023-06-19T11:30:19;95671.25;;;27.73
32039;BMP280;18549;42.286;22.688;2023-06-19T11:32:56;95660.88;;;27.81
32039;BMP280;18549;42.286;22.688;2023-06-19T11:35:24;95657.56;;;27.80
32039;BMP280;18549;42.286;22.688;2023-06-19T11:37:57;95652.41;;;27.86
32039;BMP280;18549;42.286;22.688;2023-06-19T11:40:39;95660.28;;;27.85
32039;BMP280;18549;42.286;22.688;2023-06-19T11:43:07;95669.28;;;27.94
32039;BMP280;18549;42.286;22.688;2023-06-19T11:45:47;95670.84;;;28.01
32039;BMP280;18549;42.286;22.688;2023-06-19T11:48:22;95664.31;;;28.12
32039;BMP280;18549;42.286;22.688;2023-06-19T11:50:50;95664.31;;;28.18
32039;BMP280;18549;42.286;22.688;2023-06-19T11:53:18;95653.91;;;28.26
32039;BMP280;18549;42.286;22.688;2023-06-19T11:55:45;95662.47;;;28.38
32039;BMP280;18549;42.286;22.688;2023-06-19T11:58:35;95656.37;;;28.39
32039;BMP280;18549;42.286;22.688;2023-06-19T12:01:05;95654.16;;;28.55
32039;BMP280;18549;42.286;22.688;2023-06-19T12:03:34;95656.31;;;28.58
32039;BMP280;18549;42.286;22.688;2023-06-19T12:06:02;95655.28;;;28.65
32039;BMP280;18549;42.286;22.688;2023-06-19T12:08:29;95659.00;;;28.69
32039;BMP280;18549;42.286;22.688;2023-06-19T12:10:56;95655.28;;;28.65
32039;BMP280;18549;42.286;22.688;2023-06-19T12:13:24;95645.25;;;28.70
32039;BMP280;18549;42.286;22.688;2023-06-19T12:15:52;95641.50;;;28.73
32039;BMP280;18549;42.286;22.688;2023-06-19T12:18:21;95651.66;;;28.79
32039;BMP280;18549;42.286;22.688;2023-06-19T12:20:49;95640.06;;;28.83
32039;BMP280;18549;42.286;22.688;2023-06-19T12:23:16;95650.78;;;28.91
32039;BMP280;18549;42.286;22.688;2023-06-19T12:25:47;95641.78;;;28.89
32039;BMP280;18549;42.286;22.688;2023-06-19T12:28:14;95646.25;;;28.69
32039;BMP280;18549;42.286;22.688;2023-06-19T12:30:44;95637.47;;;28.59
32039;BMP280;18549;42.286;22.688;2023-06-19T12:33:13;95637.47;;;28.52
32039;BMP280;18549;42.286;22.688;2023-06-19T12:35:49;95633.16;;;28.59
32039;BMP280;18549;42.286;22.688;2023-06-19T12:38:20;95630.25;;;28.56
32039;BMP280;18549;42.286;22.688;2023-06-19T12:40:48;95634.47;;;28.68
32039;BMP280;18549;42.286;22.688;2023-06-19T12:43:16;95619.50;;;28.78
32039;BMP280;18549;42.286;22.688;2023-06-19T12:45:43;95617.34;;;28.75
32039;BMP280;18549;42.286;22.688;2023-06-19T12:48:11;95625.75;;;28.82
32039;BMP280;18549;42.286;22.688;2023-06-19T12:50:44;95629.88;;;28.83
32039;BMP280;18549;42.286;22.688;2023-06-19T12:53:12;95630.00;;;28.94
32039;BMP280;18549;42.286;22.688;2023-06-19T12:55:39;95627.31;;;29.07
32039;BMP280;18549;42.286;22.688;2023-06-19T12:58:08;95623.69;;;28.97
32039;BMP280;18549;42.286;22.688;2023-06-19T13:00:37;95623.88;;;28.71
32039;BMP280;18549;42.286;22.688;2023-06-19T13:03:05;95622.00;;;28.48
32039;BMP280;18549;42.286;22.688;2023-06-19T13:05:34;95626.94;;;28.43
32039;BMP280;18549;42.286;22.688;2023-06-19T13:08:03;95627.13;;;28.41
32039;BMP280;18549;42.286;22.688;2023-06-19T13:10:30;95625.63;;;28.34
32039;BMP280;18549;42.286;22.688;2023-06-19T13:12:58;95626.63;;;28.26
32039;BMP280;18549;42.286;22.688;2023-06-19T13:15:32;95617.81;;;28.22
32039;BMP280;18549;42.286;22.688;2023-06-19T13:18:13;95623.47;;;28.31
32039;BMP280;18549;42.286;22.688;2023-06-19T13:20:42;95621.22;;;28.54
32039;BMP280;18549;42.286;22.688;2023-06-19T13:23:12;95630.94;;;28.69
32039;BMP280;18549;42.286;22.688;2023-06-19T13:25:39;95602.94;;;28.87
32039;BMP280;18549;42.286;22.688;2023-06-19T13:28:08;95618.16;;;29.00
32039;BMP280;18549;42.286;22.688;2023-06-19T13:30:35;95611.03;;;29.15
32039;BMP280;18549;42.286;22.688;2023-06-19T13:33:03;95610.59;;;29.18
32039;BMP280;18549;42.286;22.688;2023-06-19T13:35:31;95610.06;;;29.33
32039;BMP280;18549;42.286;22.688;2023-06-19T13:38:03;95615.16;;;29.33
32039;BMP280;18549;42.286;22.688;2023-06-19T13:40:35;95608.69;;;29.07
32039;BMP280;18549;42.286;22.688;2023-06-19T13:43:04;95606.19;;;29.00
32039;BMP280;18549;42.286;22.688;2023-06-19T13:45:32;95606.47;;;29.17
32039;BMP280;18549;42.286;22.688;2023-06-19T13:47:59;95606.94;;;29.31
32039;BMP280;18549;42.286;22.688;2023-06-19T13:50:30;95609.06;;;29.34
32039;BMP280;18549;42.286;22.688;2023-06-19T13:52:58;95600.69;;;29.27
32039;BMP280;18549;42.286;22.688;2023-06-19T13:55:26;95601.06;;;29.31
32039;BMP280;18549;42.286;22.688;2023-06-19T13:57:54;95604.22;;;29.26
32039;BMP280;18549;42.286;22.688;2023-06-19T14:00:21;95596.44;;;29.22
32039;BMP280;18549;42.286;22.688;2023-06-19T14:02:49;95606.16;;;29.31
32039;BMP280;18549;42.286;22.688;2023-06-19T14:05:16;95597.78;;;29.42
32039;BMP280;18549;42.286;22.688;2023-06-19T14:07:44;95594.53;;;29.53
32039;BMP280;18549;42.286;22.688;2023-06-19T14:10:11;95592.34;;;29.56
32039;BMP280;18549;42.286;22.688;2023-06-19T14:12:39;95589.31;;;29.65
32039;BMP280;18549;42.286;22.688;2023-06-19T14:15:09;95597.16;;;29.64
32039;BMP280;18549;42.286;22.688;2023-06-19T14:17:38;95593.63;;;29.65
32039;BMP280;18549;42.286;22.688;2023-06-19T14:20:10;95592.12;;;29.57
32039;BMP280;18549;42.286;22.688;2023-06-19T14:22:37;95589.94;;;29.61